Time;durP1;ratioP1;P1;durP2;ratioP2;P2;SDS_P1;SDS_P2;PMS_P1;PMS_P2;Temp;Humidity;BMP_temperature;BMP_pressure;BME280_temperature;BME280_humidity;BME280_pressure;Samples;Min_cycle;Max_cycle;Signal;HPM_P1;HPM_P2
2021/05/01 00:01:42;;;;;;;1.65;0.47;;;12.70;55.70;;;;;;5011972;28;20046;-74
2021/05/01 00:04:08;;;;;;;0.45;0.22;;;12.60;55.70;;;;;;5012477;28;20034;-74
2021/05/01 00:06:35;;;;;;;0.70;0.47;;;12.60;55.70;;;;;;5011871;28;20034;-74
2021/05/01 00:09:01;;;;;;;1.10;0.40;;;12.60;55.80;;;;;;5011178;28;20391;-74
2021/05/01 00:11:27;;;;;;;1.13;0.60;;;12.50;55.70;;;;;;5028406;28;20039;-74
2021/05/01 00:13:56;;;;;;;1.13;0.52;;;12.50;55.90;;;;;;5012233;28;20479;-74
2021/05/01 00:16:23;;;;;;;0.73;0.40;;;12.50;55.90;;;;;;5008777;28;20033;-74
2021/05/01 00:18:49;;;;;;;0.77;0.22;;;12.40;56.00;;;;;;5010649;28;20722;-74
2021/05/01 00:21:15;;;;;;;2.67;0.68;;;12.40;56.00;;;;;;5010044;28;20038;-73
2021/05/01 00:23:41;;;;;;;3.92;1.02;;;12.30;56.00;;;;;;5010501;28;20402;-73
2021/05/01 00:26:10;;;;;;;5.82;1.92;;;12.20;56.10;;;;;;5009658;28;20253;-74
2021/05/01 00:28:40;;;;;;;1.65;1.27;;;12.20;56.30;;;;;;5012700;28;20062;-74
2021/05/01 00:31:06;;;;;;;1.65;0.60;;;12.10;56.30;;;;;;5009720;28;20049;-74
2021/05/01 00:33:32;;;;;;;2.85;0.30;;;12.10;56.40;;;;;;5012386;28;20042;-74
2021/05/01 00:35:59;;;;;;;0.38;0.20;;;12.00;56.40;;;;;;5011736;28;20034;-75
2021/05/01 00:38:25;;;;;;;0.98;0.50;;;12.00;56.60;;;;;;5012516;28;20050;-74
2021/05/01 00:40:51;;;;;;;0.68;0.20;;;11.90;56.80;;;;;;5010200;28;20025;-74
2021/05/01 00:43:17;;;;;;;2.42;0.40;;;11.80;56.90;;;;;;5010735;28;20508;-74
2021/05/01 00:45:43;;;;;;;1.42;0.63;;;11.70;56.90;;;;;;5008554;28;20038;-74
2021/05/01 00:48:09;;;;;;;0.63;0.20;;;11.70;56.90;;;;;;5011366;28;20042;-74
2021/05/01 00:50:35;;;;;;;2.03;0.85;;;11.70;57.00;;;;;;5011639;28;20041;-74
2021/05/01 00:53:01;;;;;;;0.32;0.22;;;11.60;57.10;;;;;;5010561;28;20145;-74
2021/05/01 00:55:27;;;;;;;1.85;0.70;;;11.60;57.30;;;;;;5011309;28;20037;-74
2021/05/01 00:57:53;;;;;;;0.45;0.20;;;11.50;57.40;;;;;;5011405;28;20038;-74
2021/05/01 01:02:48;;;;;;;1.00;0.30;;;11.40;57.40;;;;;;5014280;28;20034;-73
2021/05/01 01:05:15;;;;;;;0.40;0.30;;;11.40;57.40;;;;;;5030873;28;20038;-74
2021/05/01 01:07:41;;;;;;;0.40;0.10;;;11.40;57.40;;;;;;5009694;28;20040;-74
2021/05/01 01:10:07;;;;;;;1.85;0.98;;;11.40;57.40;;;;;;5010596;28;20372;-73
2021/05/01 01:12:33;;;;;;;1.55;0.70;;;11.40;57.50;;;;;;5011187;28;20022;-74
2021/05/01 01:14:59;;;;;;;1.52;0.52;;;11.30;57.40;;;;;;5010449;28;20037;-74
2021/05/01 01:17:25;;;;;;;0.80;0.55;;;11.30;57.40;;;;;;5012091;28;20030;-74
2021/05/01 01:19:53;;;;;;;3.00;0.88;;;11.30;57.40;;;;;;5010578;28;20037;-74
2021/05/01 01:22:19;;;;;;;1.38;0.80;;;11.30;57.40;;;;;;5010735;28;20490;-74
2021/05/01 01:24:45;;;;;;;3.65;1.10;;;11.30;57.50;;;;;;5009897;28;20042;-74
2021/05/01 01:27:11;;;;;;;0.32;0.17;;;11.40;57.50;;;;;;4994474;28;20045;-74
2021/05/01 01:29:38;;;;;;;1.40;0.90;;;11.30;57.40;;;;;;4990916;28;20419;-75
2021/05/01 01:32:06;;;;;;;0.50;0.22;;;11.30;57.40;;;;;;5022481;28;20042;-75
2021/05/01 01:34:32;;;;;;;1.52;0.73;;;11.30;57.50;;;;;;5007803;28;20487;-74
2021/05/01 01:36:58;;;;;;;0.68;0.30;;;11.30;57.50;;;;;;5009765;28;20477;-73
2021/05/01 01:39:24;;;;;;;0.38;0.20;;;11.30;57.60;;;;;;5008918;28;20045;-74
2021/05/01 01:41:50;;;;;;;2.22;0.65;;;11.30;57.60;;;;;;5010323;28;20046;-74
2021/05/01 01:44:17;;;;;;;1.48;0.52;;;11.30;57.60;;;;;;5010609;28;20041;-75
2021/05/01 01:46:43;;;;;;;1.48;0.40;;;11.30;57.60;;;;;;5009067;28;20041;-74
2021/05/01 01:49:09;;;;;;;3.63;0.63;;;11.20;57.60;;;;;;5009666;28;20426;-75
2021/05/01 01:51:35;;;;;;;0.52;0.30;;;11.20;57.60;;;;;;5010642;28;20022;-74
2021/05/01 01:54:01;;;;;;;2.38;0.80;;;11.20;57.70;;;;;;5010345;28;20054;-74
2021/05/01 01:56:27;;;;;;;0.77;0.38;;;11.20;57.80;;;;;;5039711;28;20030;-74
2021/05/01 01:58:56;;;;;;;0.65;0.20;;;11.20;57.80;;;;;;5008990;28;20025;-73
2021/05/01 02:01:22;;;;;;;0.93;0.38;;;11.20;57.90;;;;;;5008401;28;20403;-75
2021/05/01 02:03:48;;;;;;;0.40;0.20;;;11.20;57.90;;;;;;5005564;28;20118;-73
2021/05/01 02:06:16;;;;;;;0.95;0.20;;;11.20;57.90;;;;;;5004974;28;20053;-74
2021/05/01 02:08:43;;;;;;;0.52;0.40;;;11.20;57.90;;;;;;5005591;28;20045;-74
2021/05/01 02:11:09;;;;;;;1.02;0.65;;;11.10;58.50;;;;;;5034303;28;20030;-73
2021/05/01 02:13:35;;;;;;;1.60;0.75;;;11.10;58.00;;;;;;5007351;28;20483;-74
2021/05/01 02:16:02;;;;;;;1.17;0.80;;;11.10;58.20;;;;;;5007244;28;20045;-75
2021/05/01 02:18:28;;;;;;;2.78;0.57;;;11.00;58.40;;;;;;5013300;28;20042;-75
2021/05/01 02:20:54;;;;;;;0.82;0.40;;;10.90;58.40;;;;;;5008124;28;20053;-74
2021/05/01 02:23:20;;;;;;;1.88;0.60;;;10.90;58.50;;;;;;5027399;28;20050;-74
2021/05/01 02:25:46;;;;;;;0.65;0.40;;;10.90;58.60;;;;;;5005097;28;20041;-75
2021/05/01 02:28:13;;;;;;;0.95;0.82;;;10.80;58.80;;;;;;5013115;28;20057;-74
2021/05/01 02:30:39;;;;;;;0.60;0.40;;;10.80;59.00;;;;;;5006534;28;20049;-74
2021/05/01 02:33:05;;;;;;;0.70;0.43;;;10.70;59.00;;;;;;5012458;28;20030;-74
2021/05/01 02:35:32;;;;;;;2.63;0.50;;;10.70;59.10;;;;;;5015555;28;20030;-74
2021/05/01 02:37:58;;;;;;;1.77;1.02;;;10.70;59.10;;;;;;5012675;28;20034;-74
2021/05/01 02:40:24;;;;;;;1.42;0.38;;;10.70;59.00;;;;;;5013701;28;20026;-74
2021/05/01 02:42:50;;;;;;;0.55;0.28;;;10.70;59.00;;;;;;5012989;28;20060;-74
2021/05/01 02:45:18;;;;;;;1.73;1.02;;;10.70;59.10;;;;;;5009921;28;20498;-74
2021/05/01 02:47:44;;;;;;;0.70;0.50;;;10.70;59.10;;;;;;5014826;28;20037;-74
2021/05/01 02:50:11;;;;;;;1.77;0.38;;;10.70;59.20;;;;;;5014443;28;20042;-74
2021/05/01 02:52:37;;;;;;;1.45;0.80;;;10.70;59.20;;;;;;5011917;28;20387;-74
2021/05/01 02:55:04;;;;;;;5.25;0.30;;;10.70;59.30;;;;;;5013986;28;20505;-75
2021/05/01 02:57:30;;;;;;;1.23;0.73;;;10.70;59.40;;;;;;5013495;28;20030;-74
2021/05/01 03:00:02;;;;;;;1.17;0.57;;;10.70;59.30;;;;;;5012077;28;20033;-73
2021/05/01 03:02:28;;;;;;;2.80;0.68;;;10.60;59.30;;;;;;5013007;28;20402;-74
2021/05/01 03:04:55;;;;;;;1.20;0.45;;;10.60;59.30;;;;;;5011670;28;20032;-73
2021/05/01 03:07:22;;;;;;;1.67;0.70;;;10.70;59.30;;;;;;5010556;28;20046;-75
2021/05/01 03:09:48;;;;;;;2.10;0.60;;;10.70;59.20;;;;;;5040998;28;20395;-74
2021/05/01 03:12:15;;;;;;;2.17;0.75;;;10.70;59.40;;;;;;5012934;28;20030;-74
2021/05/01 03:14:41;;;;;;;3.53;1.73;;;10.60;59.30;;;;;;5013913;28;20034;-75
2021/05/01 03:17:07;;;;;;;1.92;0.90;;;10.60;59.40;;;;;;5015588;28;20054;-74
2021/05/01 03:19:33;;;;;;;1.13;0.57;;;10.60;59.40;;;;;;5022493;28;20049;-75
2021/05/01 03:21:59;;;;;;;1.20;0.52;;;10.60;59.50;;;;;;5013431;28;20372;-75
2021/05/01 03:24:25;;;;;;;4.72;1.17;;;10.50;59.60;;;;;;5013224;28;20038;-75
2021/05/01 03:26:51;;;;;;;2.08;0.95;;;10.50;59.60;;;;;;5013233;28;20026;-75
2021/05/01 03:29:17;;;;;;;3.67;1.42;;;10.50;59.60;;;;;;5010981;28;20057;-74
2021/05/01 03:31:43;;;;;;;3.97;1.10;;;10.50;59.60;;;;;;5010888;28;20045;-74
2021/05/01 03:34:09;;;;;;;2.15;0.77;;;10.50;59.60;;;;;;5010598;28;20156;-74
2021/05/01 03:36:35;;;;;;;2.20;0.73;;;10.50;59.50;;;;;;5044273;28;20030;-74
2021/05/01 03:39:01;;;;;;;5.28;0.93;;;10.50;59.50;;;;;;5011428;28;20505;-74
2021/05/01 03:41:27;;;;;;;1.10;0.50;;;10.50;59.40;;;;;;5013573;28;20034;-74
2021/05/01 03:43:53;;;;;;;1.13;0.60;;;10.50;59.40;;;;;;4993412;28;20411;-75
2021/05/01 03:46:19;;;;;;;1.55;0.47;;;10.50;59.40;;;;;;5005049;28;20042;-74
2021/05/01 03:48:46;;;;;;;6.38;1.95;;;10.50;59.50;;;;;;5013294;28;20030;-74
2021/05/01 03:51:12;;;;;;;1.02;0.60;;;10.50;59.40;;;;;;5011589;28;20042;-75
2021/05/01 03:53:38;;;;;;;1.70;0.73;;;10.50;59.50;;;;;;5013714;28;20053;-75
2021/05/01 03:56:04;;;;;;;2.08;1.08;;;10.40;59.50;;;;;;5015654;28;20026;-75
2021/05/01 03:58:30;;;;;;;1.20;0.80;;;10.40;59.60;;;;;;5012249;28;20042;-74
2021/05/01 04:00:56;;;;;;;4.35;0.80;;;10.40;59.70;;;;;;5010556;28;20034;-75
2021/05/01 04:03:22;;;;;;;2.47;1.40;;;10.30;59.60;;;;;;5010414;28;20034;-75
2021/05/01 04:05:48;;;;;;;1.85;0.90;;;10.30;59.70;;;;;;5005773;28;20037;-75
2021/05/01 04:08:14;;;;;;;2.20;1.30;;;10.30;59.80;;;;;;5029630;28;20395;-75
2021/05/01 04:10:40;;;;;;;1.83;1.13;;;10.20;59.80;;;;;;5030082;28;20034;-74
2021/05/01 04:13:06;;;;;;;2.40;1.30;;;10.20;59.80;;;;;;5004683;28;20030;-75
2021/05/01 04:15:32;;;;;;;1.98;0.68;;;10.20;59.70;;;;;;5009182;28;20034;-75
2021/05/01 04:17:59;;;;;;;3.05;0.68;;;10.20;59.80;;;;;;5012146;28;20030;-74
2021/05/01 04:20:25;;;;;;;1.65;0.68;;;10.20;59.70;;;;;;5013927;28;20038;-75
2021/05/01 04:22:51;;;;;;;2.88;1.25;;;10.20;59.80;;;;;;5009119;28;20040;-74
2021/05/01 04:25:17;;;;;;;1.58;0.68;;;10.20;59.80;;;;;;5012008;28;20041;-75
2021/05/01 04:27:43;;;;;;;6.20;1.40;;;10.20;59.80;;;;;;5010399;28;20026;-75
2021/05/01 04:30:10;;;;;;;0.93;0.73;;;10.20;59.80;;;;;;5009966;28;20042;-75
2021/05/01 04:32:36;;;;;;;5.32;1.13;;;10.10;59.70;;;;;;5012061;28;20037;-75
2021/05/01 04:35:04;;;;;;;1.90;0.75;;;10.10;59.70;;;;;;5012858;28;20045;-75
2021/05/01 04:37:30;;;;;;;1.73;1.20;;;10.10;59.70;;;;;;5010468;28;20038;-75
2021/05/01 04:39:56;;;;;;;2.90;0.90;;;10.10;59.80;;;;;;5004848;28;20518;-74
2021/05/01 04:42:22;;;;;;;2.58;1.00;;;10.10;59.80;;;;;;5007841;28;20102;-75
2021/05/01 04:44:48;;;;;;;2.55;0.85;;;10.00;59.80;;;;;;5011762;28;20034;-75
2021/05/01 04:47:15;;;;;;;2.08;0.70;;;10.00;59.80;;;;;;5012644;28;20041;-74
2021/05/01 04:49:41;;;;;;;3.85;1.58;;;10.00;60.00;;;;;;4989186;28;20518;-76
2021/05/01 04:52:07;;;;;;;0.77;0.47;;;9.90;60.00;;;;;;5017374;28;20100;-75
2021/05/01 04:54:33;;;;;;;2.28;1.05;;;9.90;60.00;;;;;;5011369;28;20038;-75
2021/05/01 04:56:59;;;;;;;1.40;0.70;;;9.90;60.10;;;;;;5010816;28;20026;-75
2021/05/01 04:59:25;;;;;;;2.08;0.65;;;9.80;60.00;;;;;;5013283;28;20029;-75
2021/05/01 05:01:51;;;;;;;1.83;0.80;;;9.80;60.00;;;;;;5014697;28;20037;-75
2021/05/01 05:04:17;;;;;;;2.90;1.13;;;9.80;60.00;;;;;;5011281;28;20042;-74
2021/05/01 05:06:43;;;;;;;1.60;0.90;;;9.80;60.10;;;;;;5009617;28;20030;-75
2021/05/01 05:09:09;;;;;;;2.00;0.50;;;9.80;60.00;;;;;;4992739;28;20058;-74
2021/05/01 05:11:35;;;;;;;0.73;0.55;;;9.80;60.10;;;;;;5011334;28;20034;-76
2021/05/01 05:14:02;;;;;;;2.72;1.05;;;9.80;60.10;;;;;;5010304;28;20069;-76
2021/05/01 05:16:28;;;;;;;4.72;1.25;;;9.80;60.00;;;;;;5009281;28;20398;-75
2021/05/01 05:18:56;;;;;;;1.25;0.85;;;9.80;60.00;;;;;;5009676;28;20414;-75
2021/05/01 05:21:23;;;;;;;3.58;1.67;;;9.80;60.00;;;;;;5010905;28;20044;-75
2021/05/01 05:23:49;;;;;;;2.50;1.23;;;10.00;59.90;;;;;;4992947;28;20062;-75
2021/05/01 05:26:15;;;;;;;10.88;0.90;;;10.10;59.70;;;;;;5027892;28;20037;-75
2021/05/01 05:28:41;;;;;;;2.30;0.82;;;10.30;59.60;;;;;;5009160;28;20038;-75
2021/05/01 05:31:07;;;;;;;1.95;0.90;;;10.30;59.40;;;;;;5010586;28;20041;-75
2021/05/01 05:33:33;;;;;;;5.03;1.63;;;10.40;59.40;;;;;;5009564;28;20030;-75
2021/05/01 05:35:59;;;;;;;1.70;1.20;;;10.40;59.40;;;;;;5009876;28;20026;-75
2021/05/01 05:38:26;;;;;;;1.65;0.50;;;10.40;59.40;;;;;;5030082;28;20041;-75
2021/05/01 05:40:52;;;;;;;3.40;1.27;;;10.40;59.30;;;;;;5005755;28;20052;-74
2021/05/01 05:43:18;;;;;;;0.75;0.40;;;10.50;59.30;;;;;;5008430;28;20419;-75
2021/05/01 05:45:46;;;;;;;2.42;1.48;;;10.60;59.30;;;;;;5009129;28;20034;-75
2021/05/01 05:48:13;;;;;;;0.98;0.65;;;10.60;59.20;;;;;;5009770;28;20034;-74
2021/05/01 05:50:39;;;;;;;2.55;1.20;;;10.60;59.10;;;;;;5011882;28;20044;-75
2021/05/01 05:53:05;;;;;;;2.80;1.27;;;10.60;59.20;;;;;;5030353;28;20057;-75
2021/05/01 05:55:31;;;;;;;3.28;1.05;;;10.70;59.10;;;;;;5003576;28;20042;-74
2021/05/01 05:57:57;;;;;;;0.95;0.47;;;10.80;59.00;;;;;;5008920;28;20040;-74
2021/05/01 06:00:24;;;;;;;3.33;1.55;;;10.90;58.90;;;;;;5009088;28;20033;-75
2021/05/01 06:02:51;;;;;;;1.58;0.57;;;10.90;58.80;;;;;;4993182;28;20049;-75
2021/05/01 06:05:31;;;;;;;0.38;0.22;;;11.00;58.90;;;;;;5010182;28;20030;-75
2021/05/01 06:08:01;;;;;;;2.75;0.88;;;11.00;58.90;;;;;;5007302;28;20042;-75
2021/05/01 06:10:27;;;;;;;2.20;1.23;;;11.00;58.80;;;;;;5008538;28;20046;-75
2021/05/01 06:12:53;;;;;;;1.27;0.60;;;11.00;58.90;;;;;;5009106;28;20034;-75
2021/05/01 06:15:20;;;;;;;1.90;1.23;;;11.10;58.80;;;;;;5010102;28;20053;-75
2021/05/01 06:17:47;;;;;;;8.32;1.23;;;11.20;58.70;;;;;;5011206;28;20032;-75
2021/05/01 06:20:13;;;;;;;3.83;1.40;;;11.30;58.60;;;;;;5011666;28;20034;-75
2021/05/01 06:22:40;;;;;;;2.88;0.98;;;11.30;58.50;;;;;;5010282;28;20034;-82
2021/05/01 06:25:11;;;;;;;2.03;0.40;;;11.30;58.50;;;;;;5008957;28;20038;-82
2021/05/01 06:27:37;;;;;;;1.10;0.45;;;11.50;58.70;;;;;;5006769;28;20056;-83
2021/05/01 06:30:07;;;;;;;1.20;0.75;;;11.70;58.50;;;;;;5007812;28;20050;-83
2021/05/01 06:32:34;;;;;;;2.67;1.17;;;11.90;58.30;;;;;;5007206;28;20033;-83
2021/05/01 06:35:00;;;;;;;3.35;1.10;;;12.10;58.10;;;;;;5006338;28;20029;-83
2021/05/01 06:37:27;;;;;;;1.52;0.88;;;12.20;57.90;;;;;;4993604;28;20038;-82
2021/05/01 06:39:55;;;;;;;2.50;0.70;;;12.30;57.70;;;;;;4998531;28;20398;-75
2021/05/01 06:42:30;;;;;;;3.08;1.38;;;12.50;57.50;;;;;;5009618;28;20022;-75
2021/05/01 06:45:10;;;;;;;3.17;0.70;;;12.70;57.40;;;;;;5008799;28;20396;-75
2021/05/01 06:47:38;;;;;;;2.35;1.23;;;12.70;57.50;;;;;;5025624;28;20507;-77
2021/05/01 06:50:11;;;;;;;2.58;1.45;;;12.80;57.30;;;;;;5010208;28;20041;-76
2021/05/01 06:52:44;;;;;;;1.60;0.80;;;12.80;57.20;;;;;;5004244;28;20034;-78
2021/05/01 06:55:12;;;;;;;3.10;1.30;;;13.00;57.10;;;;;;4998977;28;20030;-77
2021/05/01 06:57:42;;;;;;;1.23;0.70;;;13.10;56.90;;;;;;4991064;28;20794;-77
2021/05/01 07:00:08;;;;;;;3.72;1.45;;;13.20;56.70;;;;;;5007433;28;20026;-78
2021/05/01 07:02:39;;;;;;;5.32;1.55;;;13.30;56.50;;;;;;4987666;28;20423;-76
2021/05/01 07:05:07;;;;;;;1.33;0.55;;;13.40;56.40;;;;;;5014726;28;20034;-77
2021/05/01 07:07:33;;;;;;;4.70;1.60;;;13.50;56.30;;;;;;5005466;28;20049;-76
2021/05/01 07:09:59;;;;;;;1.92;0.77;;;13.50;56.30;;;;;;4996012;28;20050;-77
2021/05/01 07:12:25;;;;;;;5.43;1.00;;;13.50;56.40;;;;;;5013968;28;20026;-78
2021/05/01 07:14:52;;;;;;;1.65;0.73;;;13.60;56.40;;;;;;5008202;28;20390;-79
2021/05/01 07:17:18;;;;;;;3.25;1.55;;;13.60;56.30;;;;;;5030623;28;20031;-78
2021/05/01 07:19:44;;;;;;;4.82;1.30;;;13.80;56.20;;;;;;5013293;28;20042;-78
2021/05/01 07:22:13;;;;;;;2.92;0.80;;;14.10;55.90;;;;;;5039624;28;20428;-77
2021/05/01 07:24:39;;;;;;;2.40;0.80;;;14.40;55.50;;;;;;5014765;28;20059;-78
2021/05/01 07:27:05;;;;;;;3.70;1.75;;;14.50;55.30;;;;;;4980595;28;20041;-83
2021/05/01 07:29:38;;;;;;;8.18;1.63;;;14.60;55.10;;;;;;5011810;28;20045;-84
2021/05/01 07:32:04;;;;;;;4.15;1.27;;;14.70;55.10;;;;;;5025935;28;20479;-87
2021/05/01 07:34:30;;;;;;;1.65;0.47;;;14.70;55.10;;;;;;4979784;28;20061;-85
2021/05/01 07:36:58;;;;;;;2.03;0.95;;;14.70;55.10;;;;;;5001443;28;20034;-86
2021/05/01 07:39:26;;;;;;;2.33;1.08;;;14.70;55.10;;;;;;5011772;28;20041;-85
2021/05/01 07:41:56;;;;;;;2.03;0.95;;;14.70;55.20;;;;;;4996201;28;20490;-78
2021/05/01 07:44:27;;;;;;;3.15;0.68;;;14.70;55.30;;;;;;5001342;28;20031;-79
2021/05/01 07:46:53;;;;;;;1.67;0.70;;;14.70;55.30;;;;;;5005772;28;20034;-78
2021/05/01 07:49:20;;;;;;;4.00;1.52;;;14.70;55.30;;;;;;5003696;28;20053;-78
2021/05/01 07:51:46;;;;;;;1.67;0.55;;;14.80;55.30;;;;;;5006697;28;20034;-78
2021/05/01 07:54:12;;;;;;;3.83;1.02;;;14.90;55.10;;;;;;4998725;28;20050;-78
2021/05/01 07:56:39;;;;;;;3.72;1.13;;;15.00;55.00;;;;;;5025025;28;20042;-78
2021/05/01 07:59:05;;;;;;;2.50;0.88;;;15.10;54.80;;;;;;5012234;28;20053;-79
2021/05/01 08:01:32;;;;;;;2.83;0.98;;;15.20;54.70;;;;;;4985108;28;20034;-79
2021/05/01 08:03:58;;;;;;;2.15;1.17;;;15.40;54.50;;;;;;5003778;28;20029;-79
2021/05/01 08:06:26;;;;;;;6.07;0.88;;;15.50;54.40;;;;;;4993105;28;20038;-77
2021/05/01 08:08:52;;;;;;;1.42;0.85;;;15.50;54.20;;;;;;5010231;28;20046;-77
2021/05/01 08:11:18;;;;;;;5.10;1.15;;;15.60;54.20;;;;;;5008731;28;20033;-76
2021/05/01 08:13:44;;;;;;;3.83;1.40;;;15.60;54.20;;;;;;5009376;28;20030;-77
2021/05/01 08:16:10;;;;;;;1.17;0.20;;;15.70;54.10;;;;;;4992432;28;20034;-77
2021/05/01 08:18:36;;;;;;;5.40;1.10;;;15.90;53.90;;;;;;5005984;28;20057;-77
2021/05/01 08:21:03;;;;;;;1.80;0.70;;;15.90;53.70;;;;;;5010533;28;20030;-77
2021/05/01 08:23:36;;;;;;;2.10;0.35;;;16.00;53.80;;;;;;5023984;28;20026;-81
2021/05/01 08:26:03;;;;;;;0.70;0.17;;;16.00;53.70;;;;;;5010578;28;20041;-76
2021/05/01 08:28:29;;;;;;;4.40;1.65;;;16.00;53.60;;;;;;5010640;28;20141;-75
2021/05/01 08:30:55;;;;;;;1.20;0.55;;;16.00;53.60;;;;;;5010142;28;20050;-76
2021/05/01 08:33:21;;;;;;;1.83;0.95;;;16.10;53.60;;;;;;5010689;28;20026;-76
2021/05/01 08:35:47;;;;;;;2.88;0.73;;;16.10;53.50;;;;;;4995384;28;20045;-76
2021/05/01 08:38:14;;;;;;;2.10;0.75;;;16.20;53.50;;;;;;5024294;28;20495;-76
2021/05/01 08:40:40;;;;;;;3.22;1.25;;;16.20;53.40;;;;;;5011280;28;20053;-76
2021/05/01 08:43:06;;;;;;;1.15;0.75;;;16.20;53.40;;;;;;5010482;28;20407;-77
2021/05/01 08:45:32;;;;;;;1.35;0.43;;;16.50;53.30;;;;;;5010274;28;20034;-76
2021/05/01 08:48:01;;;;;;;4.22;1.13;;;16.70;52.90;;;;;;5010085;28;20041;-76
2021/05/01 08:50:30;;;;;;;2.17;1.08;;;16.80;52.60;;;;;;5026726;28;20411;-75
2021/05/01 08:52:57;;;;;;;1.45;0.50;;;17.00;52.50;;;;;;5009211;28;20403;-76
2021/05/01 08:55:25;;;;;;;1.55;0.88;;;17.30;52.10;;;;;;5010142;28;20034;-76
2021/05/01 08:57:51;;;;;;;2.78;1.10;;;17.40;52.00;;;;;;5009624;28;20033;-77
2021/05/01 09:00:18;;;;;;;4.45;1.73;;;17.50;51.80;;;;;;5008407;28;20049;-76
2021/05/01 09:02:44;;;;;;;2.25;1.15;;;17.60;52.30;;;;;;4995213;28;20026;-76
2021/05/01 09:05:11;;;;;;;2.15;0.77;;;17.80;51.70;;;;;;5029506;28;20415;-76
2021/05/01 09:07:41;;;;;;;3.80;0.57;;;18.10;51.20;;;;;;5010754;28;20034;-76
2021/05/01 09:10:08;;;;;;;2.80;0.70;;;18.20;50.90;;;;;;4981577;28;20057;-76
2021/05/01 09:12:47;;;;;;;3.53;0.90;;;18.20;50.70;;;;;;5014907;28;20422;-76
2021/05/01 09:15:22;;;;;;;5.13;0.70;;;18.10;50.80;;;;;;5000230;28;20041;-76
2021/05/01 09:17:57;;;;;;;1.63;0.60;;;18.00;51.00;;;;;;5011354;28;20026;-76
2021/05/01 09:20:23;;;;;;;1.77;0.60;;;18.10;51.00;;;;;;5029140;28;20030;-76
2021/05/01 09:22:58;;;;;;;0.95;0.22;;;18.30;50.70;;;;;;5009903;28;20037;-76
2021/05/01 09:25:29;;;;;;;1.58;0.63;;;18.50;50.20;;;;;;5011241;28;20030;-76
2021/05/01 09:28:07;;;;;;;0.40;0.22;;;18.40;50.00;;;;;;5010169;28;20049;-76
2021/05/01 09:30:35;;;;;;;1.92;0.77;;;18.30;50.10;;;;;;5010462;28;20046;-76
2021/05/01 09:33:20;;;;;;;1.08;0.60;;;18.30;50.10;;;;;;4993119;28;20383;-76
2021/05/01 09:36:00;;;;;;;5.68;1.23;;;18.40;49.80;;;;;;5009668;28;20026;-76
2021/05/01 09:38:37;;;;;;;3.25;0.52;;;18.30;49.70;;;;;;5011569;28;20042;-76
2021/05/01 09:41:12;;;;;;;1.35;0.60;;;18.40;49.70;;;;;;5008522;28;20418;-76
2021/05/01 09:44:10;;;;;;;4.38;0.52;;;18.60;49.30;;;;;;5009402;28;20030;-76
2021/05/01 09:46:42;;;;;;;2.20;0.77;;;18.70;49.00;;;;;;5007781;28;20395;-76
2021/05/01 09:49:20;;;;;;;2.60;0.88;;;18.70;48.90;;;;;;5010437;28;20032;-76
2021/05/01 09:51:56;;;;;;;4.80;0.73;;;18.70;49.00;;;;;;5009044;28;20041;-76
2021/05/01 09:54:32;;;;;;;6.22;1.08;;;18.60;48.90;;;;;;5009701;28;20402;-76
2021/05/01 09:57:06;;;;;;;2.17;0.70;;;18.70;48.90;;;;;;5009538;28;20064;-76
2021/05/01 09:59:43;;;;;;;1.45;0.45;;;18.80;48.90;;;;;;5037970;28;20026;-76
2021/05/01 10:02:11;;;;;;;2.17;0.88;;;18.90;48.60;;;;;;4976216;28;20046;-76
2021/05/01 10:04:37;;;;;;;3.75;0.95;;;18.90;48.30;;;;;;5010294;28;20047;-76
2021/05/01 10:07:11;;;;;;;2.40;0.80;;;19.00;48.10;;;;;;5008642;28;20033;-76
2021/05/01 10:09:38;;;;;;;0.82;0.30;;;18.90;47.50;;;;;;5008517;28;20483;-76
2021/05/01 10:12:14;;;;;;;1.67;0.47;;;18.70;47.40;;;;;;4991604;28;20050;-76
2021/05/01 10:14:41;;;;;;;3.20;1.08;;;18.50;47.40;;;;;;5007316;28;20033;-75
2021/05/01 10:17:07;;;;;;;1.52;0.30;;;18.50;47.60;;;;;;5010007;28;20042;-76
2021/05/01 10:19:54;;;;;;;2.35;0.68;;;18.60;47.50;;;;;;5009966;28;20030;-76
2021/05/01 10:22:39;;;;;;;2.15;0.60;;;18.70;47.20;;;;;;5010064;28;20551;-76
2021/05/01 10:25:10;;;;;;;0.43;0.30;;;18.60;46.70;;;;;;5007403;28;20030;-76
2021/05/01 10:27:47;;;;;;;1.73;0.73;;;18.40;46.50;;;;;;5009907;28;20375;-76
2021/05/01 10:30:33;;;;;;;1.23;0.52;;;18.10;46.60;;;;;;5008983;28;20045;-76
2021/05/01 10:33:17;;;;;;;0.50;0.40;;;18.10;46.60;;;;;;5008341;28;20045;-76
2021/05/01 10:36:09;;;;;;;0.82;0.30;;;18.10;45.90;;;;;;5008247;28;20045;-76
2021/05/01 10:38:35;;;;;;;1.15;0.45;;;18.40;45.10;;;;;;5038964;28;20041;-76
2021/05/01 10:41:03;;;;;;;0.35;0.13;;;18.50;44.40;;;;;;5006964;28;20391;-76
2021/05/01 10:43:30;;;;;;;0.75;0.30;;;18.60;44.10;;;;;;5009709;28;20026;-76
2021/05/01 10:46:07;;;;;;;0.10;0.00;;;18.60;43.80;;;;;;5011831;28;20471;-76
2021/05/01 10:48:46;;;;;;;1.27;0.47;;;18.60;43.20;;;;;;5011495;28;20022;-77
2021/05/01 10:51:12;;;;;;;1.02;0.38;;;18.60;42.90;;;;;;5001305;28;20399;-77
2021/05/01 10:53:38;;;;;;;1.73;0.25;;;18.60;42.90;;;;;;4996535;28;20413;-77
2021/05/01 10:56:05;;;;;;;2.25;0.75;;;18.70;42.60;;;;;;5024824;28;20475;-78
2021/05/01 10:58:36;;;;;;;0.80;0.17;;;18.70;42.00;;;;;;5011986;28;20025;-79
2021/05/01 11:01:10;;;;;;;2.15;0.73;;;18.90;41.90;;;;;;5011531;28;20030;-78
2021/05/01 11:03:41;;;;;;;1.10;0.73;;;19.00;41.60;;;;;;5011150;28;20022;-78
2021/05/01 11:06:08;;;;;;;2.53;0.40;;;18.90;41.40;;;;;;4997470;28;20490;-78
2021/05/01 11:08:41;;;;;;;1.25;0.52;;;18.70;41.70;;;;;;5014837;28;20034;-78
2021/05/01 11:11:12;;;;;;;1.13;0.55;;;18.60;41.90;;;;;;5033017;28;20057;-78
2021/05/01 11:13:40;;;;;;;2.05;0.32;;;18.60;41.80;;;;;;5008000;28;20384;-78
2021/05/01 11:16:08;;;;;;;0.73;0.30;;;18.50;41.80;;;;;;5009834;28;20038;-78
2021/05/01 11:18:37;;;;;;;0.88;0.30;;;18.40;41.70;;;;;;5010537;28;20494;-78
2021/05/01 11:21:08;;;;;;;1.08;0.35;;;18.60;41.70;;;;;;5012990;28;20030;-78
2021/05/01 11:23:36;;;;;;;0.15;0.10;;;18.80;41.10;;;;;;5030154;28;20038;-77
2021/05/01 11:26:06;;;;;;;1.40;0.45;;;18.90;41.00;;;;;;5010065;28;20576;-78
2021/05/01 11:28:33;;;;;;;0.90;0.47;;;18.90;40.30;;;;;;5011420;28;20115;-77
2021/05/01 11:30:59;;;;;;;0.93;0.17;;;18.90;40.20;;;;;;5010773;28;20052;-77
2021/05/01 11:33:26;;;;;;;8.75;0.73;;;18.80;40.30;;;;;;5011557;28;20360;-77
2021/05/01 11:35:53;;;;;;;1.30;0.30;;;18.60;40.20;;;;;;5012990;28;20037;-77
2021/05/01 11:38:39;;;;;;;0.65;0.20;;;18.70;40.40;;;;;;5043574;28;20022;-77
2021/05/01 11:41:09;;;;;;;2.10;0.50;;;18.90;40.30;;;;;;5022995;28;20042;-77
2021/05/01 11:43:36;;;;;;;0.45;0.10;;;19.10;40.00;;;;;;5011431;28;20490;-77
2021/05/01 11:46:13;;;;;;;1.45;0.55;;;19.30;39.80;;;;;;5010253;28;20029;-77
2021/05/01 11:48:50;;;;;;;1.48;0.47;;;19.30;39.60;;;;;;5010638;28;20033;-77
2021/05/01 11:51:21;;;;;;;3.08;0.20;;;19.30;39.60;;;;;;4998589;28;20038;-77
2021/05/01 11:53:48;;;;;;;1.33;0.20;;;19.10;39.70;;;;;;4995736;28;20037;-78
2021/05/01 11:56:39;;;;;;;1.10;0.40;;;19.00;40.00;;;;;;5039090;28;20034;-78
2021/05/01 11:59:12;;;;;;;1.65;0.55;;;18.90;40.30;;;;;;5039826;28;20028;-77
2021/05/01 12:01:49;;;;;;;1.23;0.45;;;18.90;40.50;;;;;;5009748;28;20399;-77
2021/05/01 12:04:16;;;;;;;1.40;0.20;;;18.90;40.50;;;;;;5010354;28;20084;-78
2021/05/01 12:06:43;;;;;;;2.20;1.08;;;19.00;40.40;;;;;;5011615;28;20026;-78
2021/05/01 12:09:16;;;;;;;8.25;1.70;;;18.90;40.30;;;;;;5010758;28;20030;-78
2021/05/01 12:11:46;;;;;;;1.83;0.70;;;19.00;40.40;;;;;;4993325;28;20050;-77
2021/05/01 12:14:12;;;;;;;8.10;0.40;;;19.30;40.30;;;;;;5008833;28;20037;-78
2021/05/01 12:16:39;;;;;;;1.92;0.75;;;19.70;39.90;;;;;;5011604;28;20392;-78
2021/05/01 12:19:06;;;;;;;1.75;0.60;;;19.90;39.60;;;;;;5010842;28;20487;-77
2021/05/01 12:21:40;;;;;;;1.15;0.40;;;19.80;39.30;;;;;;5009593;28;20029;-77
2021/05/01 12:24:21;;;;;;;0.85;0.22;;;19.60;39.50;;;;;;5011321;28;20022;-77
2021/05/01 12:26:48;;;;;;;1.70;0.60;;;19.30;39.60;;;;;;5022813;28;20030;-77
2021/05/01 12:29:24;;;;;;;2.78;0.15;;;18.90;39.90;;;;;;5039808;28;20029;-78
2021/05/01 12:31:51;;;;;;;1.95;0.38;;;18.70;39.90;;;;;;5010726;28;20521;-77
2021/05/01 12:34:18;;;;;;;0.95;0.15;;;18.60;39.90;;;;;;5008615;28;20033;-78
2021/05/01 12:36:48;;;;;;;0.60;0.10;;;18.40;39.80;;;;;;5008831;28;20033;-76
2021/05/01 12:39:15;;;;;;;0.87;0.30;;;18.20;39.80;;;;;;5009942;28;20033;-75
2021/05/01 12:41:46;;;;;;;1.55;0.38;;;18.10;39.90;;;;;;5010855;28;20278;-77
2021/05/01 12:44:34;;;;;;;0.60;0.20;;;18.00;40.00;;;;;;5028578;28;20041;-77
2021/05/01 12:47:00;;;;;;;1.75;0.47;;;18.00;39.80;;;;;;4975556;28;20042;-76
2021/05/01 12:49:27;;;;;;;0.55;0.22;;;18.00;39.80;;;;;;5007326;28;20606;-76
2021/05/01 12:51:54;;;;;;;1.30;0.40;;;18.10;39.60;;;;;;4991874;28;20050;-76
2021/05/01 12:54:23;;;;;;;2.50;0.22;;;18.30;39.40;;;;;;5009797;28;20041;-76
2021/05/01 12:56:55;;;;;;;4.05;0.50;;;18.60;39.00;;;;;;4997064;28;20030;-77